Akhiok Airport

Airport
ICAO code: 
PAKH
IATA Code: 
AKK
Summary
ICAO Region: 
NAM
Territory: 
Location: 
Akhiok, Alaska
Serving: 
Akhiok
Elevation: 
44 ft
Coordinates: 
Aerial View: 
56° 56' 19" N, 154° 10' 57" W
Metar
Observation
PAKH 281636Z AUTO 31017G25KT OVC021 M12/M15 A2973 RMK AO2 PK WND 31028/1603 PWINO FZRANO $
Station
AKHIOK
Date/Time
2021-11-28 16:36:00
Wind direction
310°
Wind speed
17 kts
Lowest cloud amount
overcast
Temperature
-12°C
Dew point
-15°C
Humidity
78%
Weather condition
n/a

Runways

Designator Length Width Surface Rops
4/22 951 15 GRAVEL-G No/No
Airport map: 
Aerial View: 

SKYbrary Partners:

Safety knowledge contributed by: